Time;durP1;ratioP1;P1;durP2;ratioP2;P2;SDS_P1;SDS_P2;PMS_P1;PMS_P2;Temp;Humidity;BMP_temperature;BMP_pressure;BME280_temperature;BME280_humidity;BME280_pressure;Samples;Min_cycle;Max_cycle;Signal;HPM_P1;HPM_P2
2023/06/18 00:00:47;;;;;;;10.07;9.77;;;18.40;99.90;;;;;;5113558;27;20501;-68
2023/06/18 00:03:14;;;;;;;9.40;9.10;;;18.50;99.90;;;;;;5103433;27;20480;-66
2023/06/18 00:05:41;;;;;;;9.43;9.13;;;18.60;99.90;;;;;;5109967;27;20532;-68
2023/06/18 00:08:08;;;;;;;9.27;8.97;;;18.70;99.90;;;;;;5100668;27;20472;-67
2023/06/18 00:10:35;;;;;;;9.93;9.63;;;18.90;99.90;;;;;;5116006;27;20454;-67
2023/06/18 00:13:05;;;;;;;9.63;9.33;;;18.70;99.90;;;;;;5102742;27;20484;-68
2023/06/18 00:15:33;;;;;;;8.93;8.63;;;18.80;99.90;;;;;;5119290;27;20497;-66
2023/06/18 00:18:01;;;;;;;9.10;8.80;;;18.70;99.90;;;;;;5113562;27;20466;-67
2023/06/18 00:20:28;;;;;;;8.60;8.30;;;18.60;99.90;;;;;;5099260;27;20462;-67
2023/06/18 00:22:55;;;;;;;8.67;8.37;;;18.50;99.90;;;;;;5100336;27;20461;-67
2023/06/18 00:25:22;;;;;;;8.90;8.60;;;18.40;99.90;;;;;;5097915;27;20472;-67
2023/06/18 00:27:49;;;;;;;9.47;9.17;;;18.30;99.90;;;;;;5116498;27;20468;-67
2023/06/18 00:30:19;;;;;;;9.03;8.73;;;18.30;99.90;;;;;;5127916;27;20463;-67
2023/06/18 00:32:46;;;;;;;10.73;10.33;;;18.20;99.90;;;;;;5115291;27;20454;-67
2023/06/18 00:35:15;;;;;;;9.37;9.07;;;18.10;99.90;;;;;;5103543;27;20460;-68
2023/06/18 00:37:43;;;;;;;9.20;8.90;;;18.00;99.90;;;;;;5098416;27;20469;-67
2023/06/18 00:40:12;;;;;;;9.10;8.80;;;18.00;99.90;;;;;;5106752;27;20832;-67
2023/06/18 00:42:40;;;;;;;9.00;8.70;;;18.00;99.90;;;;;;5098551;28;20967;-68
2023/06/18 00:45:08;;;;;;;9.53;9.23;;;17.90;99.90;;;;;;5109562;27;20487;-69
2023/06/18 00:47:37;;;;;;;10.63;10.23;;;17.90;99.90;;;;;;5121684;27;20561;-68
2023/06/18 00:50:05;;;;;;;10.00;9.70;;;17.90;99.90;;;;;;5101008;27;20892;-69
2023/06/18 00:52:36;;;;;;;9.63;9.33;;;17.90;99.90;;;;;;5095313;27;20958;-68
2023/06/18 00:55:04;;;;;;;9.20;8.90;;;17.90;99.90;;;;;;5094982;27;20815;-68
2023/06/18 00:57:32;;;;;;;9.70;9.40;;;17.80;99.90;;;;;;5102685;28;20505;-68
2023/06/18 01:00:00;;;;;;;9.77;9.47;;;17.60;99.90;;;;;;5115478;27;20570;-69
2023/06/18 01:02:28;;;;;;;9.57;9.27;;;17.50;99.90;;;;;;5101769;27;20452;-68
2023/06/18 01:04:59;;;;;;;8.40;8.10;;;17.50;99.90;;;;;;5122964;27;20463;-68
2023/06/18 01:07:27;;;;;;;8.90;8.60;;;17.30;99.90;;;;;;5105843;27;20939;-68
2023/06/18 01:09:55;;;;;;;10.03;9.73;;;17.10;99.90;;;;;;5104442;28;20469;-68
2023/06/18 01:12:22;;;;;;;9.30;9.00;;;17.00;99.90;;;;;;5117080;27;20475;-68
2023/06/18 01:14:51;;;;;;;9.20;8.90;;;16.80;99.90;;;;;;5114121;27;20457;-68
2023/06/18 01:17:20;;;;;;;9.20;8.90;;;16.70;99.90;;;;;;5106777;27;20488;-67
2023/06/18 01:19:51;;;;;;;9.57;9.27;;;16.60;99.90;;;;;;5111359;27;20464;-67
2023/06/18 01:22:30;;;;;;;9.10;8.80;;;16.40;99.90;;;;;;5098181;27;20461;-69
2023/06/18 01:24:58;;;;;;;8.80;8.50;;;16.30;99.90;;;;;;5101103;27;20578;-67
2023/06/18 01:27:27;;;;;;;8.30;8.00;;;16.40;99.90;;;;;;5100202;28;20988;-66
2023/06/18 01:29:57;;;;;;;8.47;8.17;;;16.40;99.90;;;;;;5108721;27;20507;-66
2023/06/18 01:32:24;;;;;;;8.07;7.77;;;16.50;99.90;;;;;;5116807;27;20827;-67
2023/06/18 01:34:53;;;;;;;7.83;7.63;;;16.40;99.90;;;;;;5104886;27;20467;-66
2023/06/18 01:37:33;;;;;;;7.70;7.50;;;16.40;99.90;;;;;;5106278;28;20519;-67
2023/06/18 01:40:12;;;;;;;8.40;8.10;;;16.40;99.90;;;;;;5114383;27;20485;-67
2023/06/18 01:42:44;;;;;;;7.57;7.37;;;16.50;99.90;;;;;;5099004;27;20456;-66
2023/06/18 01:45:19;;;;;;;7.43;7.23;;;16.40;99.90;;;;;;5099688;27;20457;-66
2023/06/18 01:47:46;;;;;;;18.03;16.63;;;16.20;99.90;;;;;;5104185;27;20459;-66
2023/06/18 01:50:17;;;;;;;7.40;7.20;;;16.10;99.90;;;;;;5119976;27;20549;-66
2023/06/18 01:52:48;;;;;;;7.60;7.40;;;16.10;99.90;;;;;;5096895;28;20547;-67
2023/06/18 01:55:17;;;;;;;7.40;7.20;;;16.10;99.90;;;;;;5105371;27;20454;-66
2023/06/18 01:57:44;;;;;;;7.70;7.50;;;16.10;99.90;;;;;;5098253;27;20528;-67
2023/06/18 02:00:13;;;;;;;6.80;6.60;;;16.10;99.90;;;;;;5096891;27;20480;-66
2023/06/18 02:02:40;;;;;;;7.33;7.13;;;16.10;99.90;;;;;;5117928;27;20448;-66
2023/06/18 02:05:08;;;;;;;7.17;6.97;;;16.00;99.90;;;;;;5106721;28;20957;-67
2023/06/18 02:07:35;;;;;;;7.27;7.07;;;15.90;99.90;;;;;;5110703;27;20467;-66
2023/06/18 02:10:03;;;;;;;7.67;7.47;;;15.90;99.90;;;;;;5102529;28;20519;-68
2023/06/18 02:12:32;;;;;;;7.20;7.00;;;15.80;99.90;;;;;;5107861;28;20463;-68
2023/06/18 02:14:59;;;;;;;7.83;7.63;;;15.80;99.90;;;;;;5102670;28;20844;-67
2023/06/18 02:17:28;;;;;;;9.20;8.87;;;15.80;99.90;;;;;;5108486;28;20999;-67
2023/06/18 02:19:55;;;;;;;7.50;7.30;;;15.80;99.90;;;;;;5101280;28;20479;-67
2023/06/18 02:22:23;;;;;;;8.23;7.93;;;15.80;99.90;;;;;;5107800;27;20826;-67
2023/06/18 02:24:49;;;;;;;8.50;8.20;;;15.80;99.90;;;;;;5118966;27;20457;-68
2023/06/18 02:27:17;;;;;;;8.53;8.23;;;15.90;99.90;;;;;;5099755;27;20960;-67
2023/06/18 02:29:45;;;;;;;8.70;8.40;;;15.90;99.90;;;;;;5110894;27;20465;-66
2023/06/18 02:32:13;;;;;;;7.90;7.70;;;15.80;99.90;;;;;;5103530;27;20458;-67
2023/06/18 02:34:40;;;;;;;7.90;7.70;;;15.80;99.90;;;;;;5115654;27;21198;-67
2023/06/18 02:37:08;;;;;;;8.07;7.77;;;15.70;99.90;;;;;;5124532;27;20489;-66
2023/06/18 02:39:35;;;;;;;8.13;7.83;;;15.80;99.90;;;;;;5100628;28;20462;-67
2023/06/18 02:42:02;;;;;;;8.77;8.47;;;15.80;99.90;;;;;;5111428;28;20488;-67
2023/06/18 02:44:32;;;;;;;8.90;8.60;;;15.80;99.90;;;;;;5109574;27;20465;-67
2023/06/18 02:46:59;;;;;;;7.83;7.63;;;15.70;99.90;;;;;;5095565;27;20983;-67
2023/06/18 02:49:27;;;;;;;8.20;7.90;;;15.60;99.90;;;;;;5106682;27;20458;-67
2023/06/18 02:51:55;;;;;;;8.30;8.00;;;15.50;99.90;;;;;;5108528;27;20454;-67
2023/06/18 02:54:22;;;;;;;8.77;8.47;;;15.40;99.90;;;;;;5113299;27;20970;-67
2023/06/18 02:56:49;;;;;;;8.80;8.50;;;15.40;99.90;;;;;;5124967;27;20480;-67
2023/06/18 02:59:16;;;;;;;8.43;8.13;;;15.30;99.90;;;;;;5125611;27;20470;-67
2023/06/18 03:01:46;;;;;;;8.30;8.00;;;15.30;99.90;;;;;;5113351;27;20464;-67
2023/06/18 03:04:14;;;;;;;8.43;8.13;;;15.20;99.90;;;;;;5106591;27;20518;-67
2023/06/18 03:06:41;;;;;;;8.97;8.67;;;15.20;99.90;;;;;;5105469;28;20476;-67
2023/06/18 03:09:08;;;;;;;8.10;7.80;;;15.20;99.90;;;;;;5120415;27;20453;-67
2023/06/18 03:11:36;;;;;;;8.40;8.10;;;15.20;99.90;;;;;;5121792;27;20464;-67
2023/06/18 03:14:04;;;;;;;8.40;8.10;;;15.00;99.90;;;;;;5114158;27;20505;-68
2023/06/18 03:16:32;;;;;;;8.50;8.20;;;14.90;99.90;;;;;;5125235;27;20986;-68
2023/06/18 03:19:01;;;;;;;8.13;7.83;;;14.80;99.90;;;;;;5103616;28;20457;-67
2023/06/18 03:21:28;;;;;;;13.10;8.73;;;14.70;99.90;;;;;;5098539;28;20462;-67
2023/06/18 03:23:55;;;;;;;8.20;7.90;;;14.80;99.90;;;;;;5113311;28;20812;-68
2023/06/18 03:26:22;;;;;;;7.77;7.57;;;15.00;99.90;;;;;;5116369;28;20472;-67
2023/06/18 03:28:50;;;;;;;8.13;7.83;;;15.00;99.90;;;;;;5108385;28;20551;-68
2023/06/18 03:31:17;;;;;;;7.40;7.20;;;14.90;99.90;;;;;;5097287;28;20454;-67
2023/06/18 03:33:44;;;;;;;7.20;7.00;;;14.90;99.90;;;;;;5098112;28;20468;-68
2023/06/18 03:36:17;;;;;;;7.53;7.33;;;14.90;99.90;;;;;;5102029;28;20909;-67
2023/06/18 03:38:45;;;;;;;7.67;7.47;;;14.90;99.90;;;;;;5101289;28;20518;-68
2023/06/18 03:41:13;;;;;;;7.57;7.37;;;14.90;99.90;;;;;;5123455;28;20523;-67
2023/06/18 03:43:40;;;;;;;7.27;7.07;;;14.90;99.90;;;;;;5110597;28;20499;-67
2023/06/18 03:46:08;;;;;;;8.23;7.93;;;14.90;99.90;;;;;;5106383;28;20465;-68
2023/06/18 03:48:36;;;;;;;7.50;7.30;;;14.80;99.90;;;;;;5107594;28;20503;-67
2023/06/18 03:51:04;;;;;;;7.43;7.23;;;14.80;99.90;;;;;;5123535;28;21029;-67
2023/06/18 03:53:36;;;;;;;7.77;7.57;;;14.90;99.90;;;;;;5103139;28;20518;-67
2023/06/18 03:56:03;;;;;;;7.80;7.60;;;14.90;99.90;;;;;;5112846;28;20452;-67
2023/06/18 03:58:30;;;;;;;8.23;7.93;;;14.90;99.90;;;;;;5120027;28;20514;-67
2023/06/18 04:00:57;;;;;;;9.30;9.00;;;14.80;99.90;;;;;;5103396;28;20471;-69
2023/06/18 04:03:25;;;;;;;8.37;8.07;;;14.80;99.90;;;;;;5122273;28;20924;-67
2023/06/18 04:05:52;;;;;;;19.20;17.80;;;14.80;99.90;;;;;;5116556;28;20464;-66
2023/06/18 04:08:20;;;;;;;8.33;8.03;;;14.80;99.90;;;;;;5113732;28;20461;-67
2023/06/18 04:10:49;;;;;;;8.10;7.80;;;14.90;99.90;;;;;;5118132;28;20452;-67
2023/06/18 04:13:17;;;;;;;7.50;7.30;;;15.10;99.90;;;;;;5107676;28;20475;-67
2023/06/18 04:15:44;;;;;;;7.63;7.43;;;15.30;99.90;;;;;;5066909;27;1044255;-67
2023/06/18 04:18:11;;;;;;;9.50;9.20;;;15.40;99.90;;;;;;5107147;27;20222;-67
2023/06/18 04:20:38;;;;;;;7.90;7.63;;;15.50;99.90;;;;;;5096838;27;20458;-66
2023/06/18 04:23:07;;;;;;;7.60;7.40;;;15.70;99.90;;;;;;5104061;27;20966;-66
2023/06/18 04:25:36;;;;;;;8.40;8.10;;;15.90;99.90;;;;;;5106885;27;20465;-69
2023/06/18 04:28:05;;;;;;;8.37;8.07;;;16.00;99.90;;;;;;5116396;27;20969;-66
2023/06/18 04:30:32;;;;;;;8.93;8.63;;;16.30;99.90;;;;;;5118702;27;20635;-66
2023/06/18 04:32:59;;;;;;;10.63;10.23;;;16.40;99.90;;;;;;5101960;27;20539;-69
2023/06/18 04:35:26;;;;;;;8.53;8.23;;;16.60;99.90;;;;;;5116488;27;20475;-69
2023/06/18 04:37:53;;;;;;;8.90;8.60;;;16.80;99.90;;;;;;5105903;27;20541;-68
2023/06/18 04:40:21;;;;;;;10.17;9.80;;;16.90;99.90;;;;;;5116385;27;20487;-67
2023/06/18 04:42:48;;;;;;;8.53;8.23;;;17.00;99.90;;;;;;5117806;27;20588;-66
2023/06/18 04:45:17;;;;;;;8.30;8.00;;;17.10;99.90;;;;;;5100937;27;20868;-67
2023/06/18 04:47:44;;;;;;;9.43;9.13;;;17.20;99.90;;;;;;5100170;28;20476;-67
2023/06/18 04:50:11;;;;;;;8.60;8.30;;;17.30;99.90;;;;;;5106398;27;20461;-67
2023/06/18 04:52:38;;;;;;;8.37;8.07;;;17.30;99.90;;;;;;5100715;28;20464;-69
2023/06/18 04:55:07;;;;;;;8.40;8.10;;;17.40;99.90;;;;;;5114487;27;20485;-67
2023/06/18 04:57:37;;;;;;;8.60;8.30;;;17.60;99.90;;;;;;5118804;27;21017;-67
2023/06/18 05:00:06;;;;;;;8.13;7.87;;;17.70;99.90;;;;;;5110332;27;20489;-67
2023/06/18 05:02:34;;;;;;;9.00;8.70;;;17.70;99.90;;;;;;5087784;28;20472;-68
2023/06/18 05:05:01;;;;;;;14.17;13.00;;;17.80;99.90;;;;;;5094577;27;20851;-68
2023/06/18 05:07:29;;;;;;;9.73;9.43;;;17.90;99.90;;;;;;5107758;27;20466;-67
2023/06/18 05:09:55;;;;;;;10.70;10.30;;;18.10;99.90;;;;;;5095417;27;20552;-68
2023/06/18 05:12:23;;;;;;;11.70;11.03;;;18.30;99.90;;;;;;5102005;27;20461;-68
2023/06/18 05:14:50;;;;;;;10.97;10.57;;;18.50;99.90;;;;;;5105184;27;21196;-68
2023/06/18 05:17:17;;;;;;;11.17;10.77;;;18.70;99.90;;;;;;5116559;27;20710;-67
2023/06/18 05:19:46;;;;;;;10.60;10.20;;;18.80;99.90;;;;;;5105091;27;20452;-66
2023/06/18 05:22:13;;;;;;;11.00;10.60;;;19.00;99.90;;;;;;5087102;27;20552;-68
2023/06/18 05:24:40;;;;;;;11.20;10.80;;;19.00;99.90;;;;;;5100925;28;20454;-68
2023/06/18 05:27:07;;;;;;;10.90;10.50;;;19.10;99.90;;;;;;5105455;27;20493;-67
2023/06/18 05:29:35;;;;;;;10.80;10.40;;;19.30;99.90;;;;;;5108867;27;20465;-67
2023/06/18 05:32:03;;;;;;;11.40;11.00;;;19.30;99.90;;;;;;5112141;27;20465;-68
2023/06/18 05:34:31;;;;;;;12.63;11.93;;;19.40;99.90;;;;;;5105128;27;20461;-68
2023/06/18 05:36:59;;;;;;;11.50;11.10;;;19.50;99.90;;;;;;5102017;27;20457;-69
2023/06/18 05:39:26;;;;;;;11.50;11.10;;;19.80;99.90;;;;;;5096583;27;20469;-67
2023/06/18 05:41:54;;;;;;;11.50;11.10;;;19.90;99.90;;;;;;5103864;27;20476;-68
2023/06/18 05:44:20;;;;;;;11.70;11.30;;;20.00;99.90;;;;;;5113435;27;20577;-67
2023/06/18 05:46:48;;;;;;;11.70;11.30;;;20.00;99.90;;;;;;5089355;28;20457;-67
2023/06/18 05:49:15;;;;;;;11.90;11.47;;;20.30;99.90;;;;;;5093946;27;20834;-67
2023/06/18 05:51:45;;;;;;;12.03;11.63;;;20.50;99.90;;;;;;5107772;27;20464;-66
2023/06/18 05:54:13;;;;;;;11.80;11.40;;;20.60;99.90;;;;;;5115412;27;20466;-67
2023/06/18 05:56:40;;;;;;;12.80;12.00;;;20.60;99.90;;;;;;5089717;27;20467;-68
2023/06/18 05:59:08;;;;;;;13.33;12.33;;;20.80;99.90;;;;;;5102329;27;20500;-68
2023/06/18 06:01:36;;;;;;;11.73;11.33;;;20.90;99.90;;;;;;5103878;27;20536;-67
2023/06/18 06:04:03;;;;;;;11.40;11.00;;;21.10;99.90;;;;;;5117099;27;20460;-67
2023/06/18 06:06:30;;;;;;;11.90;11.50;;;21.30;99.90;;;;;;5117073;27;20483;-68
2023/06/18 06:08:58;;;;;;;11.57;11.17;;;21.50;99.90;;;;;;5093994;28;20556;-67
2023/06/18 06:11:26;;;;;;;11.80;11.40;;;21.60;99.90;;;;;;5097156;28;20453;-67
2023/06/18 06:13:53;;;;;;;12.97;12.47;;;21.80;99.90;;;;;;5120460;28;20457;-67
2023/06/18 06:16:21;;;;;;;12.03;11.63;;;22.00;99.90;;;;;;5106365;28;20537;-67
2023/06/18 06:18:49;;;;;;;13.13;12.63;;;22.20;99.90;;;;;;5100733;28;20492;-67
2023/06/18 06:21:17;;;;;;;28.03;26.03;;;22.30;99.90;;;;;;5103123;28;20458;-68
2023/06/18 06:23:44;;;;;;;12.00;11.60;;;22.40;99.90;;;;;;5110816;28;20572;-69
2023/06/18 06:26:11;;;;;;;11.80;11.40;;;22.50;99.90;;;;;;5091522;28;20461;-67
2023/06/18 06:28:41;;;;;;;12.40;11.90;;;22.50;99.90;;;;;;5100389;28;20457;-68
2023/06/18 06:31:07;;;;;;;12.53;12.03;;;22.50;99.90;;;;;;5110375;28;20448;-67
2023/06/18 06:33:34;;;;;;;12.30;11.80;;;22.70;99.90;;;;;;5103720;28;20457;-67
2023/06/18 06:36:01;;;;;;;13.10;12.47;;;22.90;99.90;;;;;;5106236;28;20493;-66
2023/06/18 06:38:29;;;;;;;12.40;11.90;;;23.10;99.90;;;;;;5105774;28;20493;-66
2023/06/18 06:40:56;;;;;;;12.43;11.93;;;23.20;99.90;;;;;;5094738;28;20912;-67
2023/06/18 06:43:23;;;;;;;12.30;11.80;;;23.20;99.90;;;;;;5097903;28;20510;-67
2023/06/18 06:45:51;;;;;;;12.70;12.20;;;23.40;99.90;;;;;;5093062;28;20454;-66
2023/06/18 06:48:18;;;;;;;11.93;11.53;;;23.50;99.90;;;;;;5099225;28;20969;-66
2023/06/18 06:50:44;;;;;;;13.20;12.57;;;23.70;99.90;;;;;;5098081;28;20465;-66
2023/06/18 06:53:11;;;;;;;12.20;11.70;;;24.00;99.90;;;;;;5099652;28;20488;-67
2023/06/18 06:55:38;;;;;;;12.67;12.17;;;24.20;99.90;;;;;;5087524;28;20462;-65
2023/06/18 06:58:05;;;;;;;14.10;13.10;;;24.40;99.90;;;;;;5094202;28;20489;-67
2023/06/18 07:00:32;;;;;;;12.57;12.07;;;24.90;99.90;;;;;;5099021;28;20948;-66
2023/06/18 07:03:01;;;;;;;13.00;12.50;;;25.10;99.90;;;;;;5097717;28;20453;-66
2023/06/18 07:05:28;;;;;;;13.30;12.80;;;25.50;99.90;;;;;;5093369;28;20562;-66
2023/06/18 07:07:56;;;;;;;12.70;12.20;;;25.70;99.10;;;;;;5101496;28;20484;-67
2023/06/18 07:10:23;;;;;;;13.10;12.60;;;25.70;98.00;;;;;;5090108;28;20453;-67
2023/06/18 07:12:50;;;;;;;13.00;12.50;;;25.70;97.40;;;;;;5098286;27;20519;-66
2023/06/18 07:15:18;;;;;;;12.60;12.10;;;25.70;97.60;;;;;;5103929;27;21036;-67
2023/06/18 07:17:45;;;;;;;12.07;11.63;;;26.00;97.50;;;;;;5119483;27;20918;-67
2023/06/18 07:20:14;;;;;;;12.50;12.00;;;25.90;97.50;;;;;;5104064;27;20590;-67
2023/06/18 07:22:41;;;;;;;13.17;12.67;;;26.20;97.00;;;;;;5089292;28;20458;-66
2023/06/18 07:25:08;;;;;;;13.40;12.90;;;26.20;95.10;;;;;;5093968;27;20449;-67
2023/06/18 07:27:35;;;;;;;12.40;11.90;;;26.20;94.30;;;;;;5104590;27;20464;-67
2023/06/18 07:30:02;;;;;;;12.70;12.20;;;26.90;93.90;;;;;;5101006;27;20457;-67
2023/06/18 07:32:29;;;;;;;13.83;13.30;;;27.40;93.60;;;;;;5101229;27;20464;-68
2023/06/18 07:34:56;;;;;;;13.43;12.93;;;27.60;91.30;;;;;;5102354;27;20465;-67
2023/06/18 07:37:24;;;;;;;13.03;12.53;;;28.00;89.90;;;;;;5107607;27;20456;-68
2023/06/18 07:39:51;;;;;;;12.90;12.40;;;28.00;88.10;;;;;;5104842;27;20896;-67
2023/06/18 07:42:18;;;;;;;12.80;12.30;;;28.30;85.50;;;;;;5093174;28;20546;-67
2023/06/18 07:44:45;;;;;;;13.03;12.53;;;28.30;84.70;;;;;;5092158;27;20592;-68
2023/06/18 07:47:13;;;;;;;12.77;12.27;;;28.60;80.90;;;;;;5108193;27;20452;-67
2023/06/18 07:49:40;;;;;;;11.93;11.53;;;28.60;81.50;;;;;;5093873;27;20909;-67
2023/06/18 07:52:08;;;;;;;12.43;11.97;;;28.40;76.20;;;;;;5095026;27;20867;-66
2023/06/18 07:54:36;;;;;;;12.10;11.70;;;28.20;75.40;;;;;;5109109;27;20904;-67
2023/06/18 07:57:04;;;;;;;12.73;12.13;;;28.20;75.90;;;;;;5103858;27;20881;-67
2023/06/18 07:59:31;;;;;;;13.10;12.50;;;28.30;73.60;;;;;;5117385;27;20936;-67
2023/06/18 08:01:58;;;;;;;13.20;12.70;;;27.80;73.90;;;;;;5096738;27;20860;-67
2023/06/18 08:04:25;;;;;;;12.40;11.90;;;27.70;79.40;;;;;;5099338;27;21236;-67
2023/06/18 08:06:52;;;;;;;14.10;13.37;;;27.50;83.70;;;;;;5095593;27;20484;-66
2023/06/18 08:09:19;;;;;;;13.60;12.93;;;27.00;86.80;;;;;;5103313;27;21134;-68
2023/06/18 08:11:48;;;;;;;12.93;12.43;;;26.90;90.00;;;;;;5116830;27;20464;-67
2023/06/18 08:14:15;;;;;;;11.90;11.50;;;26.70;90.80;;;;;;5115360;27;20457;-66
2023/06/18 08:16:42;;;;;;;11.83;11.43;;;26.30;93.00;;;;;;5087693;28;20498;-68
2023/06/18 08:19:08;;;;;;;11.83;11.43;;;26.80;93.40;;;;;;5100484;27;21102;-68
2023/06/18 08:21:36;;;;;;;11.90;11.50;;;27.20;91.80;;;;;;5107230;27;20463;-68
2023/06/18 08:24:03;;;;;;;12.60;12.10;;;26.90;91.60;;;;;;5100698;27;20458;-67
2023/06/18 08:26:30;;;;;;;12.27;11.77;;;26.30;92.40;;;;;;5106660;27;20460;-68
2023/06/18 08:28:59;;;;;;;11.60;11.20;;;26.50;94.50;;;;;;5100884;27;20498;-67
2023/06/18 08:31:26;;;;;;;12.80;12.30;;;27.20;92.50;;;;;;5092145;27;20454;-67
2023/06/18 08:33:53;;;;;;;13.63;13.03;;;27.70;92.80;;;;;;5104366;27;20454;-68
2023/06/18 08:36:21;;;;;;;13.40;12.70;;;27.70;90.50;;;;;;5120666;27;20503;-68
2023/06/18 08:38:47;;;;;;;12.87;12.37;;;27.90;87.90;;;;;;5103524;27;20507;-68
2023/06/18 08:41:15;;;;;;;13.60;13.10;;;28.40;89.00;;;;;;5104368;27;20484;-67
2023/06/18 08:43:42;;;;;;;12.93;12.43;;;28.50;89.70;;;;;;5104296;27;20466;-67
2023/06/18 08:46:13;;;;;;;14.00;13.33;;;28.70;86.30;;;;;;5101874;27;20586;-66
2023/06/18 08:48:45;;;;;;;13.77;13.17;;;28.90;85.40;;;;;;5105023;27;20781;-68
2023/06/18 08:51:12;;;;;;;12.53;12.03;;;29.40;82.90;;;;;;5108820;27;20461;-66
2023/06/18 08:53:43;;;;;;;13.23;12.73;;;29.30;80.40;;;;;;5113781;27;20460;-68
2023/06/18 08:56:10;;;;;;;13.60;13.00;;;28.70;81.30;;;;;;5110891;27;20460;-67
2023/06/18 08:58:41;;;;;;;13.60;13.00;;;28.90;83.40;;;;;;5102662;27;20975;-67
2023/06/18 09:01:08;;;;;;;13.40;12.80;;;29.00;83.70;;;;;;5111281;27;20491;-68
2023/06/18 09:03:37;;;;;;;13.13;12.63;;;29.50;81.40;;;;;;5107472;28;20457;-67
2023/06/18 09:06:04;;;;;;;12.77;12.27;;;29.60;78.80;;;;;;5110852;27;20588;-68
2023/06/18 09:08:32;;;;;;;14.27;13.57;;;30.60;79.20;;;;;;5095030;28;20498;-67
2023/06/18 09:10:59;;;;;;;12.70;12.20;;;30.30;77.10;;;;;;5107302;27;20513;-67
2023/06/18 09:13:25;;;;;;;15.43;14.40;;;30.00;79.20;;;;;;5113563;27;20548;-67
2023/06/18 09:15:52;;;;;;;13.33;12.83;;;30.20;78.20;;;;;;5095164;27;20485;-67
2023/06/18 09:18:21;;;;;;;12.93;12.37;;;30.20;81.10;;;;;;5099711;28;20588;-69
2023/06/18 09:20:50;;;;;;;13.40;12.90;;;30.70;75.70;;;;;;5106250;27;20830;-67
2023/06/18 09:23:17;;;;;;;12.20;11.73;;;30.90;77.90;;;;;;5091404;27;20458;-68
2023/06/18 09:25:51;;;;;;;12.77;12.27;;;31.30;76.20;;;;;;5088642;28;20831;-67
2023/06/18 09:28:19;;;;;;;12.87;12.27;;;31.50;74.60;;;;;;5109567;27;20787;-67
2023/06/18 09:30:51;;;;;;;13.07;12.47;;;31.60;70.50;;;;;;5093753;27;20462;-67
2023/06/18 09:33:29;;;;;;;13.03;12.53;;;31.70;70.80;;;;;;5106659;27;20896;-67
2023/06/18 09:36:01;;;;;;;12.70;12.20;;;31.80;68.00;;;;;;5114237;27;20585;-67
2023/06/18 09:38:36;;;;;;;13.10;12.60;;;32.40;68.40;;;;;;5088059;27;20558;-68
2023/06/18 09:41:09;;;;;;;11.90;11.50;;;32.70;68.80;;;;;;5096165;27;20514;-68
2023/06/18 09:43:37;;;;;;;14.07;13.30;;;33.60;65.20;;;;;;5110778;27;20469;-69
2023/06/18 09:46:07;;;;;;;13.67;13.10;;;33.40;62.30;;;;;;5110070;27;20762;-68
2023/06/18 09:48:38;;;;;;;11.60;11.20;;;33.40;60.60;;;;;;5116431;27;20469;-67
2023/06/18 09:51:06;;;;;;;13.10;12.60;;;33.60;59.10;;;;;;5101098;27;20461;-68
2023/06/18 09:53:34;;;;;;;13.67;12.97;;;33.90;56.40;;;;;;5089558;28;20829;-68
2023/06/18 09:56:11;;;;;;;14.23;13.40;;;34.30;58.00;;;;;;5113440;27;20453;-67
2023/06/18 09:58:43;;;;;;;12.70;12.20;;;33.60;57.70;;;;;;5107254;27;20474;-68
2023/06/18 10:01:11;;;;;;;12.90;12.40;;;33.20;59.10;;;;;;5102562;28;21106;-69
2023/06/18 10:03:37;;;;;;;12.83;12.33;;;33.50;57.30;;;;;;5102455;27;20980;-67
2023/06/18 10:06:14;;;;;;;13.50;12.90;;;33.20;55.60;;;;;;5102763;28;20473;-68
2023/06/18 10:08:45;;;;;;;13.03;12.53;;;32.60;55.00;;;;;;5110613;27;20460;-69
2023/06/18 10:11:12;;;;;;;13.20;12.60;;;32.30;56.60;;;;;;5102719;28;20468;-67
2023/06/18 10:13:44;;;;;;;13.90;13.30;;;32.70;57.00;;;;;;5114207;28;20750;-67
2023/06/18 10:16:13;;;;;;;12.30;11.90;;;32.50;57.00;;;;;;5103793;28;20496;-68
2023/06/18 10:18:47;;;;;;;14.27;13.57;;;32.40;56.70;;;;;;5096170;28;20493;-68
2023/06/18 10:21:17;;;;;;;12.20;11.80;;;33.40;56.10;;;;;;5103262;28;20449;-69
2023/06/18 10:23:47;;;;;;;12.80;12.30;;;33.90;56.70;;;;;;5100353;28;20950;-68
2023/06/18 10:26:14;;;;;;;11.80;11.40;;;34.10;55.40;;;;;;5103395;28;20458;-69
2023/06/18 10:28:42;;;;;;;12.00;11.60;;;33.50;53.70;;;;;;5111154;28;20461;-68
2023/06/18 10:31:09;;;;;;;13.50;13.00;;;34.00;54.60;;;;;;5099636;28;20492;-68
2023/06/18 10:33:36;;;;;;;13.60;13.10;;;33.50;53.80;;;;;;5105997;28;20453;-69
2023/06/18 10:36:04;;;;;;;13.00;12.50;;;33.50;54.80;;;;;;5091795;28;20948;-69
2023/06/18 10:38:35;;;;;;;13.03;12.43;;;33.40;52.60;;;;;;5097548;28;20461;-67
2023/06/18 10:41:11;;;;;;;13.77;13.07;;;33.40;52.10;;;;;;5119181;28;20977;-67
2023/06/18 10:43:42;;;;;;;14.07;13.47;;;33.60;51.40;;;;;;5100896;27;20464;-67
2023/06/18 10:46:10;;;;;;;12.93;12.43;;;33.80;52.30;;;;;;5099365;27;20685;-68
2023/06/18 10:48:37;;;;;;;13.83;13.33;;;34.70;52.50;;;;;;5120429;27;20457;-69
2023/06/18 10:51:17;;;;;;;14.67;14.07;;;35.20;51.70;;;;;;5100254;28;20873;-68
2023/06/18 10:53:47;;;;;;;14.37;13.77;;;35.70;51.70;;;;;;5100828;27;20464;-67
2023/06/18 10:56:16;;;;;;;13.40;12.90;;;35.50;52.00;;;;;;5098756;27;21170;-69
2023/06/18 10:58:43;;;;;;;13.67;12.90;;;35.30;51.50;;;;;;5118166;27;20947;-67
2023/06/18 11:01:26;;;;;;;15.70;15.00;;;35.20;50.70;;;;;;5106414;27;20461;-69
2023/06/18 11:04:06;;;;;;;14.00;13.40;;;34.50;52.00;;;;;;5103623;27;20456;-68
2023/06/18 11:06:33;;;;;;;14.60;14.00;;;33.90;53.50;;;;;;5104224;27;20681;-67
2023/06/18 11:09:01;;;;;;;15.17;14.27;;;33.90;51.80;;;;;;5082026;28;20678;-67
2023/06/18 11:11:32;;;;;;;14.00;13.40;;;34.10;50.50;;;;;;5089721;27;20454;-67
2023/06/18 11:13:59;;;;;;;13.70;13.20;;;33.60;50.00;;;;;;5109163;27;20449;-69
2023/06/18 11:16:26;;;;;;;13.67;13.17;;;34.00;50.70;;;;;;5096818;27;20506;-67
2023/06/18 11:18:57;;;;;;;13.13;12.63;;;34.10;50.20;;;;;;5097025;27;20500;-68
2023/06/18 11:21:24;;;;;;;16.30;13.80;;;34.90;50.10;;;;;;5111930;27;20993;-69
2023/06/18 11:23:52;;;;;;;14.80;14.10;;;34.90;49.60;;;;;;5093056;27;20457;-67
2023/06/18 11:26:22;;;;;;;13.70;13.20;;;35.20;49.60;;;;;;5103452;27;20565;-68
2023/06/18 11:28:51;;;;;;;13.20;12.70;;;34.70;49.30;;;;;;5099311;27;20456;-68
2023/06/18 11:31:18;;;;;;;13.23;12.63;;;33.90;50.60;;;;;;5118588;27;20471;-68
2023/06/18 11:33:47;;;;;;;13.30;12.80;;;33.50;50.90;;;;;;5102010;27;20871;-67
2023/06/18 11:36:17;;;;;;;14.13;13.53;;;33.20;50.30;;;;;;5089970;27;20576;-67
2023/06/18 11:38:43;;;;;;;15.50;14.80;;;33.10;51.40;;;;;;5074270;27;20465;-68
2023/06/18 11:41:11;;;;;;;14.60;14.00;;;32.60;51.20;;;;;;5095281;27;20481;-67
2023/06/18 11:43:46;;;;;;;14.00;13.43;;;32.30;52.40;;;;;;5087121;27;21122;-67
2023/06/18 11:46:30;;;;;;;13.30;12.80;;;32.00;53.20;;;;;;5094217;27;20460;-68
2023/06/18 11:48:58;;;;;;;14.90;14.30;;;31.80;53.90;;;;;;5092387;27;20472;-68
2023/06/18 11:51:27;;;;;;;14.10;13.50;;;31.60;53.80;;;;;;5095663;27;20824;-67
2023/06/18 11:53:54;;;;;;;14.57;13.97;;;31.40;54.60;;;;;;5093649;27;20462;-68
2023/06/18 11:56:25;;;;;;;13.93;13.33;;;31.30;53.40;;;;;;5086852;28;22965;-67
2023/06/18 11:58:54;;;;;;;14.20;13.60;;;30.80;53.20;;;;;;5092985;27;20913;-67
2023/06/18 12:01:25;;;;;;;14.73;14.13;;;30.80;54.70;;;;;;5097972;27;20456;-69
2023/06/18 12:03:52;;;;;;;13.80;13.30;;;30.80;55.90;;;;;;5093701;28;20492;-67
2023/06/18 12:06:19;;;;;;;13.00;12.50;;;30.80;55.60;;;;;;5105345;27;20448;-69
2023/06/18 12:08:46;;;;;;;14.17;13.57;;;30.80;55.40;;;;;;5089169;27;20461;-69
2023/06/18 12:11:27;;;;;;;14.40;13.80;;;30.90;56.10;;;;;;5092149;27;20484;-69
2023/06/18 12:14:01;;;;;;;13.07;12.57;;;30.80;54.40;;;;;;5090939;27;20454;-68
2023/06/18 12:16:30;;;;;;;13.50;13.00;;;30.80;56.30;;;;;;5098991;27;20485;-68
2023/06/18 12:19:01;;;;;;;13.77;13.27;;;30.70;55.90;;;;;;5096249;27;21006;-68
2023/06/18 12:21:28;;;;;;;13.80;13.30;;;30.60;55.30;;;;;;5102151;27;20476;-68
2023/06/18 12:23:57;;;;;;;13.13;12.63;;;30.60;55.80;;;;;;5086314;28;20462;-68
2023/06/18 12:26:24;;;;;;;13.90;13.40;;;30.30;57.60;;;;;;5101675;27;20840;-68
2023/06/18 12:28:53;;;;;;;14.37;13.77;;;30.40;56.00;;;;;;5101694;27;20453;-68
2023/06/18 12:31:22;;;;;;;14.03;13.43;;;30.60;55.70;;;;;;5097855;27;20925;-68
2023/06/18 12:33:49;;;;;;;15.33;14.73;;;30.60;56.00;;;;;;5093839;27;21064;-68
2023/06/18 12:36:16;;;;;;;15.10;14.50;;;30.90;56.40;;;;;;5102744;27;20471;-68
2023/06/18 12:38:45;;;;;;;15.87;15.17;;;30.90;55.80;;;;;;5089493;27;20902;-68